createdAt,value
2018-12-02T00:01:38.836Z,96511.95
2018-12-02T00:04:10.596Z,96449.31
2018-12-02T00:06:37.868Z,96507.53
2018-12-02T00:09:06.206Z,96494.72
2018-12-02T00:11:33.457Z,96490.05
2018-12-02T00:14:00.639Z,96480.93
2018-12-02T00:16:27.851Z,96481.18
2018-12-02T00:18:55.090Z,96480.66
2018-12-02T00:21:22.266Z,96472.55
2018-12-02T00:23:49.563Z,96460.31
2018-12-02T00:26:16.716Z,96458.73
2018-12-02T00:28:43.970Z,96452.73
2018-12-02T00:31:11.176Z,96460.62
2018-12-02T00:33:38.400Z,96462.45
2018-12-02T00:36:06.207Z,96453.08
2018-12-02T00:38:33.367Z,96452.20
2018-12-02T00:41:00.594Z,96441.56
2018-12-02T00:43:27.781Z,96436.09
2018-12-02T00:45:54.978Z,96439.70
2018-12-02T00:48:22.288Z,96437.56
2018-12-02T00:50:49.451Z,96423.78
2018-12-02T00:53:16.727Z,96432.06
2018-12-02T00:55:43.951Z,96435.00
2018-12-02T00:58:11.158Z,96441.78
2018-12-02T01:00:38.388Z,96439.95
2018-12-02T01:03:08.343Z,96437.06
2018-12-02T01:05:35.554Z,96429.75
2018-12-02T01:08:02.809Z,96427.11
2018-12-02T01:10:30.056Z,96422.91
2018-12-02T01:12:58.162Z,96420.84
2018-12-02T01:15:27.461Z,96426.39
2018-12-02T01:17:54.690Z,96422.95
2018-12-02T01:20:22.498Z,96415.67
2018-12-02T01:22:49.738Z,96415.92
2018-12-02T01:25:17.003Z,96414.11
2018-12-02T01:27:44.919Z,96417.53
2018-12-02T01:30:20.843Z,96412.47
2018-12-02T01:32:48.218Z,96404.39
2018-12-02T01:35:16.390Z,96403.86
2018-12-02T01:37:43.685Z,96407.03
2018-12-02T01:40:12.015Z,96402.33
2018-12-02T01:42:39.226Z,96397.39
2018-12-02T01:45:12.489Z,96389.27
2018-12-02T01:47:39.688Z,96381.19
2018-12-02T01:50:10.459Z,96373.83
2018-12-02T01:52:37.697Z,96378.55
2018-12-02T01:55:05.622Z,96368.20
2018-12-02T01:57:32.785Z,96366.86
2018-12-02T02:00:00.009Z,96376.28
2018-12-02T02:02:27.195Z,96376.25
2018-12-02T02:04:54.372Z,96371.80
2018-12-02T02:07:21.558Z,96366.11
2018-12-02T02:09:48.769Z,96358.68
2018-12-02T02:12:15.944Z,96351.66
2018-12-02T02:14:43.131Z,96345.19
2018-12-02T02:17:10.362Z,96346.22
2018-12-02T02:19:37.562Z,96346.25
2018-12-02T02:22:04.899Z,96336.08
2018-12-02T02:24:32.087Z,96333.38
2018-12-02T02:26:59.379Z,96332.69
2018-12-02T02:29:26.600Z,96333.91
2018-12-02T02:31:53.838Z,96335.70
2018-12-02T02:34:21.074Z,96339.19
2018-12-02T02:36:48.284Z,96332.13
2018-12-02T02:39:15.506Z,96332.10
2018-12-02T02:41:42.714Z,96329.84
2018-12-02T02:44:09.914Z,96321.72
2018-12-02T02:46:37.135Z,96315.20
2018-12-02T02:49:04.590Z,96308.42
2018-12-02T02:51:31.810Z,96313.64
2018-12-02T02:53:59.006Z,96311.24
2018-12-02T02:56:26.261Z,96310.78
2018-12-02T02:58:53.438Z,96309.54
2018-12-02T03:01:20.667Z,96311.28
2018-12-02T03:03:47.872Z,96301.98
2018-12-02T03:06:15.125Z,96304.03
2018-12-02T03:08:42.283Z,96296.20
2018-12-02T03:11:09.444Z,96297.97
2018-12-02T03:13:36.649Z,96295.67
2018-12-02T03:16:03.891Z,96288.27
2018-12-02T03:18:31.058Z,96287.50
2018-12-02T03:20:58.187Z,96285.45
2018-12-02T03:23:25.366Z,96286.54
2018-12-02T03:25:52.589Z,96281.13
2018-12-02T03:28:19.798Z,96287.14
2018-12-02T03:30:46.945Z,96285.73
2018-12-02T03:33:14.129Z,96278.28
2018-12-02T03:35:41.340Z,96278.81
2018-12-02T03:38:08.539Z,96283.83
2018-12-02T03:40:35.883Z,96288.48
2018-12-02T03:43:03.132Z,96287.70
2018-12-02T03:45:30.305Z,96282.20
2018-12-02T03:47:58.040Z,96273.73
2018-12-02T03:50:25.239Z,96280.44
2018-12-02T03:52:52.505Z,96273.41
2018-12-02T03:55:19.750Z,96272.88
2018-12-02T03:57:47.002Z,96269.14
2018-12-02T04:00:21.833Z,96269.64
2018-12-02T04:02:49.546Z,96262.44
2018-12-02T04:05:17.842Z,96261.88
2018-12-02T04:07:45.083Z,96247.31
2018-12-02T04:10:13.190Z,96240.35
2018-12-02T04:12:40.407Z,96239.47
2018-12-02T04:15:12.501Z,96234.18
2018-12-02T04:17:39.882Z,96231.11
2018-12-02T04:20:09.110Z,96220.95
2018-12-02T04:22:36.398Z,96226.07
2018-12-02T04:25:04.691Z,96225.96
2018-12-02T04:27:31.894Z,96226.95
2018-12-02T04:29:59.150Z,96222.95
2018-12-02T04:32:26.452Z,96217.81
2018-12-02T04:34:53.710Z,96208.00
2018-12-02T04:37:20.925Z,96206.91
2018-12-02T04:39:48.278Z,96197.60
2018-12-02T04:42:15.476Z,96198.34
2018-12-02T04:44:42.703Z,96194.91
2018-12-02T04:47:09.902Z,96188.14
2018-12-02T04:49:37.108Z,96179.25
2018-12-02T04:52:04.503Z,96177.95
2018-12-02T04:54:31.718Z,96174.14
2018-12-02T04:56:58.949Z,96181.65
2018-12-02T04:59:26.163Z,96185.31
2018-12-02T05:01:53.379Z,96183.77
2018-12-02T05:04:20.582Z,96175.58
2018-12-02T05:06:47.779Z,96169.41
2018-12-02T05:09:14.915Z,96166.77
2018-12-02T05:11:42.155Z,96160.48
2018-12-02T05:14:09.362Z,96155.50
2018-12-02T05:16:36.581Z,96152.39
2018-12-02T05:19:03.838Z,96157.86
2018-12-02T05:21:31.106Z,96153.91
2018-12-02T05:23:58.278Z,96155.98
2018-12-02T05:26:25.463Z,96142.12
2018-12-02T05:28:52.652Z,96133.80
2018-12-02T05:31:19.817Z,96125.93
2018-12-02T05:33:47.073Z,96120.95
2018-12-02T05:36:14.274Z,96118.19
2018-12-02T05:38:41.552Z,96115.70
2018-12-02T05:41:08.767Z,96113.05
2018-12-02T05:43:35.976Z,96116.14
2018-12-02T05:46:03.203Z,96113.54
2018-12-02T05:48:30.500Z,96104.52
2018-12-02T05:50:57.712Z,96106.59
2018-12-02T05:53:24.916Z,96107.85
2018-12-02T05:55:52.130Z,96111.48
2018-12-02T05:58:19.354Z,96111.06
2018-12-02T06:00:46.553Z,96109.52
2018-12-02T06:03:13.718Z,96109.18
2018-12-02T06:05:40.870Z,96108.89
2018-12-02T06:08:08.053Z,96095.59
2018-12-02T06:10:35.196Z,96099.94
2018-12-02T06:13:02.375Z,96095.48
2018-12-02T06:15:29.626Z,96091.63
2018-12-02T06:17:56.845Z,96092.48
2018-12-02T06:20:25.313Z,96088.43
2018-12-02T06:22:54.183Z,96089.30
2018-12-02T06:25:21.423Z,96085.63
2018-12-02T06:27:48.616Z,96080.36
2018-12-02T06:30:17.162Z,96082.14
2018-12-02T06:32:44.936Z,96077.16
2018-12-02T06:35:13.100Z,96083.73
2018-12-02T06:37:40.305Z,96078.77
2018-12-02T06:40:16.681Z,96072.62
2018-12-02T06:42:43.884Z,96073.30
2018-12-02T06:45:11.755Z,96071.55
2018-12-02T06:47:39.803Z,96069.67
2018-12-02T06:50:22.822Z,96056.61
2018-12-02T06:52:50.205Z,96055.59
2018-12-02T06:55:41.016Z,96051.62
2018-12-02T06:58:20.583Z,96056.03
2018-12-02T07:00:58.687Z,96048.43
2018-12-02T07:03:37.318Z,96050.02
2018-12-02T07:06:05.138Z,96049.98
2018-12-02T07:08:32.459Z,96052.78
2018-12-02T07:10:59.602Z,96046.78
2018-12-02T07:13:26.817Z,96048.00
2018-12-02T07:15:53.988Z,96042.05
2018-12-02T07:18:25.712Z,96043.35
2018-12-02T07:20:58.587Z,96035.69
2018-12-02T07:23:28.141Z,96039.56
2018-12-02T07:25:58.576Z,96031.67
2018-12-02T07:28:25.762Z,96032.79
2018-12-02T07:30:52.951Z,96021.47
2018-12-02T07:33:20.196Z,96015.42
2018-12-02T07:35:47.474Z,96017.43
2018-12-02T07:38:21.975Z,96013.75
2018-12-02T07:40:49.285Z,96006.69
2018-12-02T07:43:16.555Z,96005.14
2018-12-02T07:45:43.795Z,96006.45
2018-12-02T07:48:11.003Z,96001.70
2018-12-02T07:50:38.216Z,96004.14
2018-12-02T07:53:05.457Z,96003.11
2018-12-02T07:55:32.673Z,95992.67
2018-12-02T07:57:59.876Z,96000.44
2018-12-02T08:00:27.127Z,95994.69
2018-12-02T08:02:54.603Z,95983.00
2018-12-02T08:05:21.866Z,95984.47
2018-12-02T08:07:50.030Z,95980.31
2018-12-02T08:10:17.926Z,95981.70
2018-12-02T08:12:45.258Z,95981.46
2018-12-02T08:15:14.565Z,95981.52
2018-12-02T08:17:41.804Z,95975.80
2018-12-02T08:20:11.988Z,95978.90
2018-12-02T08:22:39.254Z,95975.22
2018-12-02T08:25:14.969Z,95974.98
2018-12-02T08:27:42.233Z,95971.01
2018-12-02T08:30:13.863Z,95972.95
2018-12-02T08:32:41.051Z,95973.62
2018-12-02T08:35:09.351Z,95974.16
2018-12-02T08:37:36.587Z,95970.23
2018-12-02T08:40:06.352Z,95971.48
2018-12-02T08:42:33.592Z,95974.45
2018-12-02T08:45:00.802Z,95971.59
2018-12-02T08:47:28.007Z,95977.66
2018-12-02T08:49:55.297Z,95973.73
2018-12-02T08:52:22.455Z,95969.68
2018-12-02T08:54:49.681Z,95975.70
2018-12-02T08:57:16.867Z,95976.22
2018-12-02T08:59:44.099Z,95975.70
2018-12-02T09:02:11.320Z,95976.00
2018-12-02T09:04:38.533Z,95983.52
2018-12-02T09:07:06.186Z,95974.16
2018-12-02T09:09:34.103Z,95957.80
2018-12-02T09:12:01.380Z,95973.14
2018-12-02T09:14:30.601Z,95971.06
2018-12-02T09:16:57.931Z,95972.38
2018-12-02T09:19:25.232Z,95964.58
2018-12-02T09:21:52.465Z,95967.92
2018-12-02T09:24:19.741Z,95970.48
2018-12-02T09:26:47.049Z,95947.59
2018-12-02T09:29:14.485Z,95952.58
2018-12-02T09:31:41.642Z,95953.34
2018-12-02T09:34:08.831Z,95948.70
2018-12-02T09:36:36.163Z,95940.39
2018-12-02T09:39:05.658Z,95941.42
2018-12-02T09:41:32.993Z,95936.73
2018-12-02T09:44:02.713Z,95960.77
2018-12-02T09:46:31.163Z,95930.47
2018-12-02T09:48:58.411Z,95921.31
2018-12-02T09:51:25.663Z,95924.41
2018-12-02T09:53:52.928Z,95917.58
2018-12-02T09:56:20.195Z,95906.95
2018-12-02T09:58:47.398Z,95912.23
2018-12-02T10:01:14.688Z,95904.86
2018-12-02T10:03:41.907Z,95902.46
2018-12-02T10:06:09.108Z,95895.03
2018-12-02T10:08:36.283Z,95899.67
2018-12-02T10:11:03.539Z,95892.77
2018-12-02T10:13:31.066Z,95880.29
2018-12-02T10:15:58.208Z,95881.51
2018-12-02T10:18:25.371Z,95869.44
2018-12-02T10:20:52.626Z,95865.16
2018-12-02T10:23:19.835Z,95865.45
2018-12-02T10:25:47.058Z,95860.94
2018-12-02T10:28:14.300Z,95852.48
2018-12-02T10:30:41.587Z,95854.30
2018-12-02T10:33:08.973Z,95850.02
2018-12-02T10:35:36.242Z,95846.03
2018-12-02T10:38:03.577Z,95843.95
2018-12-02T10:40:31.146Z,95840.42
2018-12-02T10:42:58.355Z,95836.94
2018-12-02T10:45:26.539Z,95833.95
2018-12-02T10:47:54.767Z,95829.90
2018-12-02T10:50:23.374Z,95836.11
2018-12-02T10:52:51.543Z,95826.81
2018-12-02T10:55:23.721Z,95821.04
2018-12-02T10:57:50.947Z,95825.73
2018-12-02T11:01:26.424Z,95818.28
2018-12-02T11:03:53.683Z,95808.35
2018-12-02T11:06:20.931Z,95809.39
2018-12-02T11:08:48.110Z,95804.02
2018-12-02T11:11:15.314Z,95798.47
2018-12-02T11:13:42.540Z,95803.95
2018-12-02T11:16:09.716Z,95789.59
2018-12-02T11:18:36.926Z,95789.36
2018-12-02T11:21:04.262Z,95781.06
2018-12-02T11:23:31.421Z,95774.40
2018-12-02T11:25:58.656Z,95773.20
2018-12-02T11:28:25.887Z,95774.79
2018-12-02T11:30:53.110Z,95772.31
2018-12-02T11:33:20.331Z,95766.77
2018-12-02T11:35:47.551Z,95763.23
2018-12-02T11:38:14.779Z,95764.94
2018-12-02T11:40:42.114Z,95767.47
2018-12-02T11:43:09.618Z,95758.34
2018-12-02T11:45:36.946Z,95760.81
2018-12-02T11:48:04.378Z,95760.05
2018-12-02T11:50:31.540Z,95754.42
2018-12-02T11:52:58.735Z,95760.66
2018-12-02T11:55:25.944Z,95756.77
2018-12-02T11:57:53.215Z,95755.61
2018-12-02T12:00:27.647Z,95755.11
2018-12-02T12:02:56.677Z,95755.77
2018-12-02T12:05:23.918Z,95762.92
2018-12-02T12:07:51.179Z,95758.92
2018-12-02T12:10:19.428Z,95751.52
2018-12-02T12:12:47.500Z,95750.52
2018-12-02T12:15:18.808Z,95748.13
2018-12-02T12:17:46.143Z,95748.44
2018-12-02T12:20:47.345Z,95748.44
2018-12-02T12:23:16.326Z,95744.82
2018-12-02T12:25:43.527Z,95747.41
2018-12-02T12:28:10.760Z,95741.44
2018-12-02T12:30:38.075Z,95736.12
2018-12-02T12:33:06.407Z,95734.20
2018-12-02T12:35:33.972Z,95736.77
2018-12-02T12:38:01.208Z,95732.30
2018-12-02T12:40:30.550Z,95733.31
2018-12-02T12:43:06.558Z,95732.34
2018-12-02T12:45:33.746Z,95740.13
2018-12-02T12:48:00.993Z,95736.96
2018-12-02T12:50:28.290Z,95731.95
2018-12-02T12:52:55.503Z,95725.86
2018-12-02T12:55:22.690Z,95725.12
2018-12-02T12:57:50.194Z,95724.42
2018-12-02T13:00:21.651Z,95723.41
2018-12-02T13:02:48.857Z,95724.98
2018-12-02T13:05:18.259Z,95724.91
2018-12-02T13:07:45.635Z,95727.98
2018-12-02T13:10:13.845Z,95715.27
2018-12-02T13:12:41.108Z,95718.50
2018-12-02T13:15:12.312Z,95713.50
2018-12-02T13:17:39.917Z,95716.34
2018-12-02T13:20:13.354Z,95728.75
2018-12-02T13:22:40.650Z,95721.12
2018-12-02T13:25:09.469Z,95719.58
2018-12-02T13:27:36.753Z,95712.40
2018-12-02T13:30:12.165Z,95706.95
2018-12-02T13:32:39.331Z,95705.63
2018-12-02T13:35:07.123Z,95706.47
2018-12-02T13:37:34.333Z,95710.72
2018-12-02T13:40:01.545Z,95713.34
2018-12-02T13:42:28.771Z,95712.17
2018-12-02T13:44:55.998Z,95707.25
2018-12-02T13:47:23.231Z,95710.92
2018-12-02T13:49:50.396Z,95714.34
2018-12-02T13:52:17.583Z,95715.41
2018-12-02T13:54:44.805Z,95709.55
2018-12-02T13:57:12.005Z,95711.86
2018-12-02T13:59:39.216Z,95710.18
2018-12-02T14:02:06.462Z,95714.42
2018-12-02T14:04:33.974Z,95707.53
2018-12-02T14:07:01.230Z,95709.79
2018-12-02T14:09:29.262Z,95705.09
2018-12-02T14:11:56.458Z,95703.77
2018-12-02T14:14:23.779Z,95711.24
2018-12-02T14:16:57.304Z,95712.38
2018-12-02T14:19:24.490Z,95704.60
2018-12-02T14:21:51.704Z,95702.06
2018-12-02T14:24:18.848Z,95706.59
2018-12-02T14:26:46.064Z,95696.10
2018-12-02T14:29:23.591Z,95696.19
2018-12-02T14:31:55.570Z,95701.89
2018-12-02T14:34:22.750Z,95696.50
2018-12-02T14:36:49.965Z,95703.31
2018-12-02T14:39:17.152Z,95703.83
2018-12-02T14:41:44.327Z,95701.15
2018-12-02T14:44:11.499Z,95704.54
2018-12-02T14:46:39.659Z,95703.14
2018-12-02T14:49:06.862Z,95703.09
2018-12-02T14:51:34.088Z,95714.55
2018-12-02T14:54:01.283Z,95708.02
2018-12-02T14:56:28.788Z,95710.64
2018-12-02T14:58:56.024Z,95712.64
2018-12-02T15:01:23.187Z,95706.99
2018-12-02T15:03:50.371Z,95707.70
2018-12-02T15:06:17.578Z,95705.84
2018-12-02T15:08:44.811Z,95704.85
2018-12-02T15:11:12.108Z,95708.02
2018-12-02T15:13:39.303Z,95705.77
2018-12-02T15:16:06.602Z,95711.09
2018-12-02T15:18:33.864Z,95706.84
2018-12-02T15:21:01.114Z,95712.23
2018-12-02T15:23:28.367Z,95716.86
2018-12-02T15:25:55.582Z,95719.66
2018-12-02T15:28:22.801Z,95715.72
2018-12-02T15:30:50.049Z,95717.17
2018-12-02T15:33:17.256Z,95723.67
2018-12-02T15:35:44.496Z,95719.34
2018-12-02T15:38:11.684Z,95720.14
2018-12-02T15:40:38.878Z,95721.96
2018-12-02T15:43:06.171Z,95722.91
2018-12-02T15:45:33.396Z,95716.58
2018-12-02T15:48:00.600Z,95714.41
2018-12-02T15:50:27.826Z,95721.02
2018-12-02T15:52:55.031Z,95714.86
2018-12-02T15:55:25.776Z,95716.43
2018-12-02T15:57:53.072Z,95716.03
2018-12-02T16:00:24.831Z,95720.03
2018-12-02T16:02:52.068Z,95725.75
2018-12-02T16:05:19.285Z,95725.30
2018-12-02T16:07:46.478Z,95732.91
2018-12-02T16:10:13.895Z,95724.58
2018-12-02T16:12:42.492Z,95734.77
2018-12-02T16:15:11.186Z,95739.95
2018-12-02T16:17:38.343Z,95746.10
2018-12-02T16:20:10.503Z,95741.65
2018-12-02T16:22:37.692Z,95747.04
2018-12-02T16:25:06.320Z,95747.89
2018-12-02T16:27:33.496Z,95744.50
2018-12-02T16:30:00.729Z,95749.59
2018-12-02T16:32:27.960Z,95743.66
2018-12-02T16:34:55.162Z,95745.72
2018-12-02T16:37:22.396Z,95740.41
2018-12-02T16:39:49.616Z,95741.50
2018-12-02T16:42:16.816Z,95744.03
2018-12-02T16:44:44.000Z,95734.77
2018-12-02T16:47:11.178Z,95732.51
2018-12-02T16:49:38.389Z,95738.30
2018-12-02T16:52:05.916Z,95740.87
2018-12-02T16:54:33.160Z,95744.66
2018-12-02T16:57:01.795Z,95752.53
2018-12-02T16:59:31.070Z,95749.59
2018-12-02T17:02:05.169Z,95751.36
2018-12-02T17:04:27.919Z,95757.13
2018-12-02T17:06:55.154Z,95749.97
2018-12-02T17:09:22.773Z,95761.00
2018-12-02T17:11:49.998Z,95753.76
2018-12-02T17:14:17.158Z,95757.15
2018-12-02T17:16:44.389Z,95750.91
2018-12-02T17:19:11.615Z,95760.86
2018-12-02T17:21:38.815Z,95762.94
2018-12-02T17:24:07.620Z,95760.91
2018-12-02T17:26:34.901Z,95765.10
2018-12-02T17:29:02.288Z,95764.39
2018-12-02T17:31:40.447Z,95766.48
2018-12-02T17:34:07.679Z,95761.09
2018-12-02T17:36:34.923Z,95774.97
2018-12-02T17:39:07.730Z,95766.79
2018-12-02T17:41:34.935Z,95769.25
2018-12-02T17:44:02.166Z,95777.27
2018-12-02T17:46:29.373Z,95774.11
2018-12-02T17:48:56.571Z,95772.97
2018-12-02T17:51:23.790Z,95780.21
2018-12-02T17:53:51.255Z,95780.44
2018-12-02T17:56:18.454Z,95780.39
2018-12-02T17:58:45.659Z,95779.20
2018-12-02T18:01:12.870Z,95777.31
2018-12-02T18:03:40.066Z,95774.59
2018-12-02T18:06:08.522Z,95786.89
2018-12-02T18:08:35.717Z,95785.58
2018-12-02T18:11:02.958Z,95785.39
2018-12-02T18:13:30.136Z,95789.93
2018-12-02T18:15:57.469Z,95789.70
2018-12-02T18:18:24.683Z,95784.47
2018-12-02T18:20:51.895Z,95785.34
2018-12-02T18:23:19.088Z,95789.88
2018-12-02T18:25:46.290Z,95794.36
2018-12-02T18:28:13.525Z,95785.37
2018-12-02T18:30:47.342Z,95792.50
2018-12-02T18:33:15.426Z,95774.91
2018-12-02T18:35:46.452Z,95793.37
2018-12-02T18:38:15.451Z,95794.16
2018-12-02T18:40:45.151Z,95793.63
2018-12-02T18:43:12.334Z,95794.17
2018-12-02T18:45:39.572Z,95791.52
2018-12-02T18:48:06.842Z,95804.83
2018-12-02T18:50:34.283Z,95807.89
2018-12-02T18:53:01.573Z,95814.16
2018-12-02T18:55:29.041Z,95810.88
2018-12-02T18:57:56.701Z,95806.81
2018-12-02T19:00:29.597Z,95803.30
2018-12-02T19:02:57.689Z,95794.06
2018-12-02T19:05:25.237Z,95798.23
2018-12-02T19:07:52.700Z,95799.44
2018-12-02T19:10:21.626Z,95801.73
2018-12-02T19:12:49.193Z,95790.42
2018-12-02T19:15:16.430Z,95799.45
2018-12-02T19:17:44.374Z,95796.14
2018-12-02T19:20:15.785Z,95794.39
2018-12-02T19:22:43.566Z,95795.92
2018-12-02T19:25:12.877Z,95797.14
2018-12-02T19:27:40.331Z,95801.75
2018-12-02T19:30:09.802Z,95797.24
2018-12-02T19:32:37.081Z,95804.51
2018-12-02T19:35:07.965Z,95804.61
2018-12-02T19:37:35.513Z,95803.39
2018-12-02T19:40:03.141Z,95803.94
2018-12-02T19:42:30.678Z,95808.66
2018-12-02T19:44:57.974Z,95813.49
2018-12-02T19:47:25.379Z,95805.37
2018-12-02T19:49:52.681Z,95807.02
2018-12-02T19:52:19.987Z,95808.89
2018-12-02T19:54:47.264Z,95818.02
2018-12-02T19:57:14.524Z,95812.62
2018-12-02T19:59:41.761Z,95811.63
2018-12-02T20:02:09.070Z,95808.66
2018-12-02T20:04:36.431Z,95811.63
2018-12-02T20:07:04.067Z,95810.09
2018-12-02T20:09:31.336Z,95814.92
2018-12-02T20:11:58.606Z,95801.08
2018-12-02T20:14:26.642Z,95808.55
2018-12-02T20:16:53.980Z,95806.24
2018-12-02T20:19:26.919Z,95808.33
2018-12-02T20:21:54.205Z,95804.83
2018-12-02T20:24:27.231Z,95806.24
2018-12-02T20:26:54.500Z,95809.87
2018-12-02T20:29:21.732Z,95804.16
2018-12-02T20:31:48.978Z,95805.56
2018-12-02T20:34:16.370Z,95800.09
2018-12-02T20:36:43.610Z,95804.72
2018-12-02T20:39:11.112Z,95804.38
2018-12-02T20:41:38.665Z,95804.70
2018-12-02T20:44:05.982Z,95808.33
2018-12-02T20:46:33.200Z,95808.55
2018-12-02T20:49:00.480Z,95812.05
2018-12-02T20:51:27.675Z,95812.70
2018-12-02T20:53:54.878Z,95802.81
2018-12-02T20:56:22.114Z,95813.38
2018-12-02T20:58:49.347Z,95812.81
2018-12-02T21:01:16.576Z,95814.78
2018-12-02T21:03:45.711Z,95808.09
2018-12-02T21:06:15.827Z,95810.40
2018-12-02T21:08:43.016Z,95809.72
2018-12-02T21:11:10.280Z,95794.98
2018-12-02T21:13:37.510Z,95798.30
2018-12-02T21:16:05.449Z,95808.09
2018-12-02T21:18:32.699Z,95806.34
2018-12-02T21:20:59.878Z,95801.61
2018-12-02T21:23:27.072Z,95792.50
2018-12-02T21:25:54.243Z,95806.32
2018-12-02T21:28:23.588Z,95805.78
2018-12-02T21:30:50.795Z,95816.56
2018-12-02T21:33:17.998Z,95810.85
2018-12-02T21:35:45.567Z,95808.11
2018-12-02T21:38:12.849Z,95815.38
2018-12-02T21:40:40.141Z,95817.77
2018-12-02T21:43:07.334Z,95821.64
2018-12-02T21:45:34.538Z,95815.81
2018-12-02T21:48:02.306Z,95814.58
2018-12-02T21:50:30.727Z,95812.28
2018-12-02T21:52:59.011Z,95810.09
2018-12-02T21:55:26.273Z,95803.83
2018-12-02T21:57:53.506Z,95804.16
2018-12-02T22:00:26.306Z,95778.34
2018-12-02T22:02:53.799Z,95807.68
2018-12-02T22:05:21.028Z,95804.60
2018-12-02T22:07:49.091Z,95804.03
2018-12-02T22:10:26.334Z,95803.48
2018-12-02T22:12:53.512Z,95800.41
2018-12-02T22:15:20.702Z,95794.91
2018-12-02T22:17:47.926Z,95808.66
2018-12-02T22:20:16.005Z,95806.02
2018-12-02T22:22:43.225Z,95810.53
2018-12-02T22:25:13.630Z,95797.09
2018-12-02T22:27:41.835Z,95796.55
2018-12-02T22:30:11.114Z,95805.36
2018-12-02T22:32:38.297Z,95806.67
2018-12-02T22:35:08.438Z,95801.39
2018-12-02T22:37:35.630Z,95799.75
2018-12-02T22:40:03.846Z,95804.16
2018-12-02T22:42:31.074Z,95790.21
2018-12-02T22:44:58.258Z,95790.33
2018-12-02T22:47:25.482Z,95800.31
2018-12-02T22:49:52.682Z,95795.15
2018-12-02T22:52:19.877Z,95795.59
2018-12-02T22:54:47.198Z,95791.09
2018-12-02T22:57:14.345Z,95794.37
2018-12-02T22:59:41.559Z,95799.98
2018-12-02T23:02:14.402Z,95796.47
2018-12-02T23:04:41.640Z,95802.20
2018-12-02T23:07:08.904Z,95799.90
2018-12-02T23:09:36.130Z,95791.73
2018-12-02T23:12:03.425Z,95789.56
2018-12-02T23:14:30.693Z,95780.20
2018-12-02T23:17:09.297Z,95780.43
2018-12-02T23:19:36.490Z,95772.49
2018-12-02T23:22:03.677Z,95781.30
2018-12-02T23:24:30.855Z,95778.64
2018-12-02T23:26:58.086Z,95776.22
2018-12-02T23:29:25.260Z,95780.06
2018-12-02T23:31:52.451Z,95771.59
2018-12-02T23:34:19.763Z,95770.58
2018-12-02T23:36:47.014Z,95770.25
2018-12-02T23:39:14.215Z,95767.39
2018-12-02T23:41:41.479Z,95759.91
2018-12-02T23:44:08.721Z,95680.34
2018-12-02T23:46:35.936Z,95763.46
2018-12-02T23:49:03.124Z,95766.07
2018-12-02T23:51:30.350Z,95755.73
2018-12-02T23:53:57.619Z,95755.64
2018-12-02T23:56:24.861Z,95752.66
2018-12-02T23:58:52.025Z,95752.23
